sensor_id;sensor_type;location;lat;lon;timestamp;temperature;humidity
1778;DHT22;886;50.082;8.222;2023-04-03T00:01:07;6.90;99.50
1778;DHT22;886;50.082;8.222;2023-04-03T00:03:36;6.90;99.60
1778;DHT22;886;50.082;8.222;2023-04-03T00:06:04;6.90;99.90
1778;DHT22;886;50.082;8.222;2023-04-03T00:08:39;6.90;99.70
1778;DHT22;886;50.082;8.222;2023-04-03T00:11:08;7.00;99.90
1778;DHT22;886;50.082;8.222;2023-04-03T00:13:36;7.00;99.90
1778;DHT22;886;50.082;8.222;2023-04-03T00:16:05;7.00;99.30
1778;DHT22;886;50.082;8.222;2023-04-03T00:18:33;7.00;99.20
1778;DHT22;886;50.082;8.222;2023-04-03T00:21:01;7.00;99.20
1778;DHT22;886;50.082;8.222;2023-04-03T00:23:29;7.00;99.20
1778;DHT22;886;50.082;8.222;2023-04-03T00:25:56;7.00;98.90
1778;DHT22;886;50.082;8.222;2023-04-03T00:28:23;7.00;98.80
1778;DHT22;886;50.082;8.222;2023-04-03T00:30:51;7.10;98.70
1778;DHT22;886;50.082;8.222;2023-04-03T00:33:18;7.10;98.50
1778;DHT22;886;50.082;8.222;2023-04-03T00:35:49;7.10;98.00
1778;DHT22;886;50.082;8.222;2023-04-03T00:38:17;7.10;97.90
1778;DHT22;886;50.082;8.222;2023-04-03T00:40:47;7.10;97.30
1778;DHT22;886;50.082;8.222;2023-04-03T00:43:16;7.20;97.20
1778;DHT22;886;50.082;8.222;2023-04-03T00:45:46;7.20;96.70
1778;DHT22;886;50.082;8.222;2023-04-03T00:48:17;7.20;96.70
1778;DHT22;886;50.082;8.222;2023-04-03T00:50:48;7.20;96.60
1778;DHT22;886;50.082;8.222;2023-04-03T00:53:19;7.30;96.40
1778;DHT22;886;50.082;8.222;2023-04-03T00:55:49;7.30;96.20
1778;DHT22;886;50.082;8.222;2023-04-03T00:58:18;7.30;96.10
1778;DHT22;886;50.082;8.222;2023-04-03T01:00:52;7.40;95.60
1778;DHT22;886;50.082;8.222;2023-04-03T01:03:24;7.30;95.10
1778;DHT22;886;50.082;8.222;2023-04-03T01:05:52;7.30;95.10
1778;DHT22;886;50.082;8.222;2023-04-03T01:08:20;7.30;95.20
1778;DHT22;886;50.082;8.222;2023-04-03T01:10:48;7.30;95.30
1778;DHT22;886;50.082;8.222;2023-04-03T01:13:26;7.30;95.10
1778;DHT22;886;50.082;8.222;2023-04-03T01:15:55;7.30;95.60
1778;DHT22;886;50.082;8.222;2023-04-03T01:18:24;7.40;95.40
1778;DHT22;886;50.082;8.222;2023-04-03T01:24:36;7.40;95.40
1778;DHT22;886;50.082;8.222;2023-04-03T01:27:07;7.40;95.10
1778;DHT22;886;50.082;8.222;2023-04-03T01:29:37;7.30;95.00
1778;DHT22;886;50.082;8.222;2023-04-03T01:32:05;7.40;95.00
1778;DHT22;886;50.082;8.222;2023-04-03T01:34:33;7.40;95.20
1778;DHT22;886;50.082;8.222;2023-04-03T01:37:00;7.40;95.30
1778;DHT22;886;50.082;8.222;2023-04-03T01:39:28;7.40;95.20
1778;DHT22;886;50.082;8.222;2023-04-03T01:41:55;7.50;95.10
1778;DHT22;886;50.082;8.222;2023-04-03T01:44:22;7.40;95.00
1778;DHT22;886;50.082;8.222;2023-04-03T01:46:49;7.40;94.90
1778;DHT22;886;50.082;8.222;2023-04-03T01:49:18;7.40;95.10
1778;DHT22;886;50.082;8.222;2023-04-03T01:51:45;7.40;95.00
1778;DHT22;886;50.082;8.222;2023-04-03T01:54:13;7.40;95.10
1778;DHT22;886;50.082;8.222;2023-04-03T01:56:40;7.40;95.30
1778;DHT22;886;50.082;8.222;2023-04-03T01:59:07;7.40;95.30
1778;DHT22;886;50.082;8.222;2023-04-03T02:01:34;7.40;95.50
1778;DHT22;886;50.082;8.222;2023-04-03T02:04:01;7.40;95.60
1778;DHT22;886;50.082;8.222;2023-04-03T02:06:30;7.40;95.60
1778;DHT22;886;50.082;8.222;2023-04-03T02:08:58;7.40;95.80
1778;DHT22;886;50.082;8.222;2023-04-03T02:11:25;7.40;95.90
1778;DHT22;886;50.082;8.222;2023-04-03T02:13:52;7.40;96.00
1778;DHT22;886;50.082;8.222;2023-04-03T02:16:19;7.30;96.00
1778;DHT22;886;50.082;8.222;2023-04-03T02:18:46;7.30;96.10
1778;DHT22;886;50.082;8.222;2023-04-03T02:21:14;7.30;96.20
1778;DHT22;886;50.082;8.222;2023-04-03T02:23:43;7.40;96.30
1778;DHT22;886;50.082;8.222;2023-04-03T02:26:12;7.30;96.30
1778;DHT22;886;50.082;8.222;2023-04-03T02:28:40;7.30;96.50
1778;DHT22;886;50.082;8.222;2023-04-03T02:31:08;7.30;96.60
1778;DHT22;886;50.082;8.222;2023-04-03T02:33:35;7.30;96.60
1778;DHT22;886;50.082;8.222;2023-04-03T02:36:04;7.30;96.70
1778;DHT22;886;50.082;8.222;2023-04-03T02:38:32;7.30;96.80
1778;DHT22;886;50.082;8.222;2023-04-03T02:41:02;7.30;96.80
1778;DHT22;886;50.082;8.222;2023-04-03T02:43:29;7.30;96.90
1778;DHT22;886;50.082;8.222;2023-04-03T02:45:57;7.20;96.90
1778;DHT22;886;50.082;8.222;2023-04-03T02:48:25;7.20;97.10
1778;DHT22;886;50.082;8.222;2023-04-03T02:50:52;7.20;97.10
1778;DHT22;886;50.082;8.222;2023-04-03T02:53:19;7.20;97.20
1778;DHT22;886;50.082;8.222;2023-04-03T02:55:47;7.20;97.20
1778;DHT22;886;50.082;8.222;2023-04-03T02:58:16;7.10;97.40
1778;DHT22;886;50.082;8.222;2023-04-03T03:00:44;7.10;97.40
1778;DHT22;886;50.082;8.222;2023-04-03T03:03:11;7.10;97.50
1778;DHT22;886;50.082;8.222;2023-04-03T03:05:40;7.00;97.60
1778;DHT22;886;50.082;8.222;2023-04-03T03:08:07;7.00;97.70
1778;DHT22;886;50.082;8.222;2023-04-03T03:10:35;7.00;97.80
1778;DHT22;886;50.082;8.222;2023-04-03T03:13:03;7.00;97.80
1778;DHT22;886;50.082;8.222;2023-04-03T03:15:32;7.00;97.90
1778;DHT22;886;50.082;8.222;2023-04-03T03:17:59;7.00;98.00
1778;DHT22;886;50.082;8.222;2023-04-03T03:20:26;7.00;97.90
1778;DHT22;886;50.082;8.222;2023-04-03T03:22:54;7.00;98.10
1778;DHT22;886;50.082;8.222;2023-04-03T03:25:21;7.00;98.00
1778;DHT22;886;50.082;8.222;2023-04-03T03:27:48;7.00;98.00
1778;DHT22;886;50.082;8.222;2023-04-03T03:30:16;7.00;98.10
1778;DHT22;886;50.082;8.222;2023-04-03T03:32:44;6.90;98.20
1778;DHT22;886;50.082;8.222;2023-04-03T03:35:12;6.90;98.20
1778;DHT22;886;50.082;8.222;2023-04-03T03:37:39;7.00;98.30
1778;DHT22;886;50.082;8.222;2023-04-03T03:40:08;6.90;98.20
1778;DHT22;886;50.082;8.222;2023-04-03T03:42:36;6.90;98.30
1778;DHT22;886;50.082;8.222;2023-04-03T03:45:05;7.00;98.50
1778;DHT22;886;50.082;8.222;2023-04-03T03:47:33;7.00;98.50
1778;DHT22;886;50.082;8.222;2023-04-03T03:50:01;7.00;98.40
1778;DHT22;886;50.082;8.222;2023-04-03T03:52:29;7.00;98.60
1778;DHT22;886;50.082;8.222;2023-04-03T03:54:56;7.00;98.50
1778;DHT22;886;50.082;8.222;2023-04-03T03:57:23;6.90;98.60
1778;DHT22;886;50.082;8.222;2023-04-03T03:59:52;6.90;98.40
1778;DHT22;886;50.082;8.222;2023-04-03T04:02:19;6.90;98.40
1778;DHT22;886;50.082;8.222;2023-04-03T04:04:47;6.90;98.50
1778;DHT22;886;50.082;8.222;2023-04-03T04:07:17;6.80;98.40
1778;DHT22;886;50.082;8.222;2023-04-03T04:09:44;6.80;98.50
1778;DHT22;886;50.082;8.222;2023-04-03T04:14:51;6.80;98.70
1778;DHT22;886;50.082;8.222;2023-04-03T04:17:17;6.80;98.70
1778;DHT22;886;50.082;8.222;2023-04-03T04:19:46;6.70;98.70
1778;DHT22;886;50.082;8.222;2023-04-03T04:22:13;6.70;98.70
1778;DHT22;886;50.082;8.222;2023-04-03T04:24:42;6.70;98.60
1778;DHT22;886;50.082;8.222;2023-04-03T04:27:08;6.60;98.60
1778;DHT22;886;50.082;8.222;2023-04-03T04:29:36;6.50;98.40
1778;DHT22;886;50.082;8.222;2023-04-03T04:32:04;6.50;98.40
1778;DHT22;886;50.082;8.222;2023-04-03T04:34:31;6.50;98.40
1778;DHT22;886;50.082;8.222;2023-04-03T04:36:58;6.50;98.50
1778;DHT22;886;50.082;8.222;2023-04-03T04:39:26;6.50;98.50
1778;DHT22;886;50.082;8.222;2023-04-03T04:41:54;6.50;98.40
1778;DHT22;886;50.082;8.222;2023-04-03T04:44:21;6.40;98.30
1778;DHT22;886;50.082;8.222;2023-04-03T04:46:49;6.40;98.10
1778;DHT22;886;50.082;8.222;2023-04-03T04:49:16;6.30;98.10
1778;DHT22;886;50.082;8.222;2023-04-03T04:51:43;6.30;97.90
1778;DHT22;886;50.082;8.222;2023-04-03T04:54:17;6.20;97.80
1778;DHT22;886;50.082;8.222;2023-04-03T04:56:44;6.20;97.80
1778;DHT22;886;50.082;8.222;2023-04-03T04:59:13;6.20;97.70
1778;DHT22;886;50.082;8.222;2023-04-03T05:01:40;6.20;97.80
1778;DHT22;886;50.082;8.222;2023-04-03T05:04:07;6.10;97.70
1778;DHT22;886;50.082;8.222;2023-04-03T05:06:34;6.10;97.80
1778;DHT22;886;50.082;8.222;2023-04-03T05:09:02;6.10;97.60
1778;DHT22;886;50.082;8.222;2023-04-03T05:11:29;6.10;97.80
1778;DHT22;886;50.082;8.222;2023-04-03T05:13:56;6.10;97.70
1778;DHT22;886;50.082;8.222;2023-04-03T05:16:25;6.10;97.70
1778;DHT22;886;50.082;8.222;2023-04-03T05:19:10;6.00;97.80
1778;DHT22;886;50.082;8.222;2023-04-03T05:21:37;6.00;97.90
1778;DHT22;886;50.082;8.222;2023-04-03T05:24:05;6.10;97.90
1778;DHT22;886;50.082;8.222;2023-04-03T05:26:35;6.10;98.20
1778;DHT22;886;50.082;8.222;2023-04-03T05:29:03;6.00;98.00
1778;DHT22;886;50.082;8.222;2023-04-03T05:31:31;6.00;98.10
1778;DHT22;886;50.082;8.222;2023-04-03T05:33:59;6.10;98.20
1778;DHT22;886;50.082;8.222;2023-04-03T05:36:26;6.00;98.10
1778;DHT22;886;50.082;8.222;2023-04-03T05:38:54;6.10;98.10
1778;DHT22;886;50.082;8.222;2023-04-03T05:41:23;6.10;98.20
1778;DHT22;886;50.082;8.222;2023-04-03T05:43:50;6.00;98.20
1778;DHT22;886;50.082;8.222;2023-04-03T05:46:18;6.10;98.20
1778;DHT22;886;50.082;8.222;2023-04-03T05:48:49;6.10;97.90
1778;DHT22;886;50.082;8.222;2023-04-03T05:51:18;6.00;97.90
1778;DHT22;886;50.082;8.222;2023-04-03T05:53:46;6.10;97.90
1778;DHT22;886;50.082;8.222;2023-04-03T05:56:14;6.10;97.80
1778;DHT22;886;50.082;8.222;2023-04-03T05:58:41;6.00;97.70
1778;DHT22;886;50.082;8.222;2023-04-03T06:01:09;6.00;97.70
1778;DHT22;886;50.082;8.222;2023-04-03T06:03:35;5.90;97.50
1778;DHT22;886;50.082;8.222;2023-04-03T06:06:07;5.90;97.70
1778;DHT22;886;50.082;8.222;2023-04-03T06:08:35;5.90;97.50
1778;DHT22;886;50.082;8.222;2023-04-03T06:11:02;6.00;97.50
1778;DHT22;886;50.082;8.222;2023-04-03T06:13:29;6.00;97.50
1778;DHT22;886;50.082;8.222;2023-04-03T06:15:56;6.00;97.50
1778;DHT22;886;50.082;8.222;2023-04-03T06:18:24;6.10;97.10
1778;DHT22;886;50.082;8.222;2023-04-03T06:20:51;6.10;97.20
1778;DHT22;886;50.082;8.222;2023-04-03T06:23:20;6.10;97.00
1778;DHT22;886;50.082;8.222;2023-04-03T06:25:47;6.10;97.00
1778;DHT22;886;50.082;8.222;2023-04-03T06:28:15;6.20;96.70
1778;DHT22;886;50.082;8.222;2023-04-03T06:30:42;6.20;96.70
1778;DHT22;886;50.082;8.222;2023-04-03T06:33:09;6.20;96.40
1778;DHT22;886;50.082;8.222;2023-04-03T06:35:36;6.20;96.50
1778;DHT22;886;50.082;8.222;2023-04-03T06:38:05;6.20;96.40
1778;DHT22;886;50.082;8.222;2023-04-03T06:40:37;6.20;96.40
1778;DHT22;886;50.082;8.222;2023-04-03T06:43:05;6.20;96.40
1778;DHT22;886;50.082;8.222;2023-04-03T06:45:34;6.20;96.30
1778;DHT22;886;50.082;8.222;2023-04-03T06:48:01;6.30;96.30
1778;DHT22;886;50.082;8.222;2023-04-03T06:50:28;6.30;96.30
1778;DHT22;886;50.082;8.222;2023-04-03T06:53:13;6.30;96.00
1778;DHT22;886;50.082;8.222;2023-04-03T06:55:41;6.40;96.00
1778;DHT22;886;50.082;8.222;2023-04-03T06:58:09;6.40;95.90
1778;DHT22;886;50.082;8.222;2023-04-03T07:00:36;6.30;95.50
1778;DHT22;886;50.082;8.222;2023-04-03T07:03:03;6.40;95.60
1778;DHT22;886;50.082;8.222;2023-04-03T07:05:30;6.30;95.50
1778;DHT22;886;50.082;8.222;2023-04-03T07:07:57;6.40;95.40
1778;DHT22;886;50.082;8.222;2023-04-03T07:10:24;6.30;94.50
1778;DHT22;886;50.082;8.222;2023-04-03T07:12:53;6.30;94.80
1778;DHT22;886;50.082;8.222;2023-04-03T07:15:21;6.30;94.90
1778;DHT22;886;50.082;8.222;2023-04-03T07:17:48;6.40;95.10
1778;DHT22;886;50.082;8.222;2023-04-03T07:20:15;6.40;94.80
1778;DHT22;886;50.082;8.222;2023-04-03T07:22:42;6.40;94.50
1778;DHT22;886;50.082;8.222;2023-04-03T07:25:09;6.40;94.60
1778;DHT22;886;50.082;8.222;2023-04-03T07:27:37;6.50;94.40
1778;DHT22;886;50.082;8.222;2023-04-03T07:30:06;6.50;94.70
1778;DHT22;886;50.082;8.222;2023-04-03T07:32:35;6.50;94.60
1778;DHT22;886;50.082;8.222;2023-04-03T07:35:02;6.60;94.50
1778;DHT22;886;50.082;8.222;2023-04-03T07:37:30;6.70;94.20
1778;DHT22;886;50.082;8.222;2023-04-03T07:39:57;6.70;93.40
1778;DHT22;886;50.082;8.222;2023-04-03T07:42:26;6.70;93.50
1778;DHT22;886;50.082;8.222;2023-04-03T07:44:56;6.90;93.30
1778;DHT22;886;50.082;8.222;2023-04-03T07:47:24;7.00;93.00
1778;DHT22;886;50.082;8.222;2023-04-03T07:49:52;7.10;92.80
1778;DHT22;886;50.082;8.222;2023-04-03T07:52:19;7.10;92.70
1778;DHT22;886;50.082;8.222;2023-04-03T07:54:46;7.20;92.80
1778;DHT22;886;50.082;8.222;2023-04-03T07:57:13;7.40;92.90
1778;DHT22;886;50.082;8.222;2023-04-03T07:59:41;7.70;92.90
1778;DHT22;886;50.082;8.222;2023-04-03T08:02:09;8.10;91.90
1778;DHT22;886;50.082;8.222;2023-04-03T08:04:38;8.40;91.40
1778;DHT22;886;50.082;8.222;2023-04-03T08:07:05;8.70;91.10
1778;DHT22;886;50.082;8.222;2023-04-03T08:09:32;8.90;90.60
1778;DHT22;886;50.082;8.222;2023-04-03T08:11:59;9.20;90.10
1778;DHT22;886;50.082;8.222;2023-04-03T08:14:27;9.50;89.70
1778;DHT22;886;50.082;8.222;2023-04-03T08:16:57;9.60;90.00
1778;DHT22;886;50.082;8.222;2023-04-03T08:19:25;9.60;88.70
1778;DHT22;886;50.082;8.222;2023-04-03T08:21:55;9.80;89.20
1778;DHT22;886;50.082;8.222;2023-04-03T08:24:23;9.90;88.90
1778;DHT22;886;50.082;8.222;2023-04-03T08:26:50;10.00;88.10
1778;DHT22;886;50.082;8.222;2023-04-03T08:29:17;9.80;88.20
1778;DHT22;886;50.082;8.222;2023-04-03T08:31:44;10.00;88.30
1778;DHT22;886;50.082;8.222;2023-04-03T08:34:13;10.20;87.80
1778;DHT22;886;50.082;8.222;2023-04-03T08:36:41;10.40;88.00
1778;DHT22;886;50.082;8.222;2023-04-03T08:39:11;10.40;86.70
1778;DHT22;886;50.082;8.222;2023-04-03T08:41:40;10.60;87.10
1778;DHT22;886;50.082;8.222;2023-04-03T08:44:24;10.70;86.20
1778;DHT22;886;50.082;8.222;2023-04-03T08:47:04;10.50;85.00
1778;DHT22;886;50.082;8.222;2023-04-03T08:49:41;10.30;85.80
1778;DHT22;886;50.082;8.222;2023-04-03T08:52:20;10.10;86.50
1778;DHT22;886;50.082;8.222;2023-04-03T08:54:54;9.90;86.50
1778;DHT22;886;50.082;8.222;2023-04-03T08:57:28;9.70;87.40
1778;DHT22;886;50.082;8.222;2023-04-03T08:59:58;9.70;87.40
1778;DHT22;886;50.082;8.222;2023-04-03T09:02:31;9.50;87.80
1778;DHT22;886;50.082;8.222;2023-04-03T09:05:05;9.40;88.00
1778;DHT22;886;50.082;8.222;2023-04-03T09:07:42;9.10;88.50
1778;DHT22;886;50.082;8.222;2023-04-03T09:10:23;9.00;89.70
1778;DHT22;886;50.082;8.222;2023-04-03T09:13:01;8.80;89.50
1778;DHT22;886;50.082;8.222;2023-04-03T09:15:32;8.80;89.70
1778;DHT22;886;50.082;8.222;2023-04-03T09:18:11;8.70;89.60
1778;DHT22;886;50.082;8.222;2023-04-03T09:20:45;8.60;89.60
1778;DHT22;886;50.082;8.222;2023-04-03T09:23:22;8.50;89.80
1778;DHT22;886;50.082;8.222;2023-04-03T09:26:00;8.50;89.70
1778;DHT22;886;50.082;8.222;2023-04-03T09:28:34;8.50;85.70
1778;DHT22;886;50.082;8.222;2023-04-03T09:31:20;8.40;85.30
1778;DHT22;886;50.082;8.222;2023-04-03T09:33:53;8.40;85.00
1778;DHT22;886;50.082;8.222;2023-04-03T09:36:43;8.50;84.20
1778;DHT22;886;50.082;8.222;2023-04-03T09:39:13;8.50;84.40
1778;DHT22;886;50.082;8.222;2023-04-03T09:41:56;8.50;84.30
1778;DHT22;886;50.082;8.222;2023-04-03T09:44:27;8.60;84.80
1778;DHT22;886;50.082;8.222;2023-04-03T09:46:55;8.60;85.50
1778;DHT22;886;50.082;8.222;2023-04-03T09:49:22;8.80;84.90
1778;DHT22;886;50.082;8.222;2023-04-03T09:51:49;8.80;85.10
1778;DHT22;886;50.082;8.222;2023-04-03T09:54:35;8.80;84.50
1778;DHT22;886;50.082;8.222;2023-04-03T09:57:10;8.80;84.50
1778;DHT22;886;50.082;8.222;2023-04-03T09:59:44;8.60;85.10
1778;DHT22;886;50.082;8.222;2023-04-03T10:02:24;8.30;85.90
1778;DHT22;886;50.082;8.222;2023-04-03T10:04:57;8.20;86.40
1778;DHT22;886;50.082;8.222;2023-04-03T10:07:34;8.20;86.90
1778;DHT22;886;50.082;8.222;2023-04-03T10:10:16;8.40;87.40
1778;DHT22;886;50.082;8.222;2023-04-03T10:15:27;8.60;88.30
1778;DHT22;886;50.082;8.222;2023-04-03T10:17:59;8.60;88.20
1778;DHT22;886;50.082;8.222;2023-04-03T10:20:43;8.60;87.90
1778;DHT22;886;50.082;8.222;2023-04-03T10:23:16;8.60;87.70
1778;DHT22;886;50.082;8.222;2023-04-03T10:25:54;8.50;88.40
1778;DHT22;886;50.082;8.222;2023-04-03T10:28:32;8.50;89.40
1778;DHT22;886;50.082;8.222;2023-04-03T10:31:08;8.60;89.20
1778;DHT22;886;50.082;8.222;2023-04-03T10:33:46;8.70;89.10
1778;DHT22;886;50.082;8.222;2023-04-03T10:36:25;8.70;88.40
1778;DHT22;886;50.082;8.222;2023-04-03T10:39:04;8.80;89.00
1778;DHT22;886;50.082;8.222;2023-04-03T10:41:49;8.80;87.90
1778;DHT22;886;50.082;8.222;2023-04-03T10:44:52;8.80;88.10
1778;DHT22;886;50.082;8.222;2023-04-03T10:47:34;8.70;88.00
1778;DHT22;886;50.082;8.222;2023-04-03T10:50:23;8.70;88.20
1778;DHT22;886;50.082;8.222;2023-04-03T10:53:06;8.70;87.50
1778;DHT22;886;50.082;8.222;2023-04-03T10:55:40;8.70;87.90
1778;DHT22;886;50.082;8.222;2023-04-03T10:58:18;8.70;88.30
1778;DHT22;886;50.082;8.222;2023-04-03T11:00:49;8.80;87.80
1778;DHT22;886;50.082;8.222;2023-04-03T11:03:27;8.90;87.50
1778;DHT22;886;50.082;8.222;2023-04-03T11:05:59;8.80;85.90
1778;DHT22;886;50.082;8.222;2023-04-03T11:08:33;8.80;87.00
1778;DHT22;886;50.082;8.222;2023-04-03T11:11:06;8.80;87.30
1778;DHT22;886;50.082;8.222;2023-04-03T11:13:40;8.80;87.80
1778;DHT22;886;50.082;8.222;2023-04-03T11:16:14;8.90;87.60
1778;DHT22;886;50.082;8.222;2023-04-03T11:18:49;9.00;86.50
1778;DHT22;886;50.082;8.222;2023-04-03T11:21:22;8.90;86.90
1778;DHT22;886;50.082;8.222;2023-04-03T11:23:56;8.80;86.10
1778;DHT22;886;50.082;8.222;2023-04-03T11:26:29;8.80;85.50
1778;DHT22;886;50.082;8.222;2023-04-03T11:29:02;8.90;85.80
1778;DHT22;886;50.082;8.222;2023-04-03T11:31:41;9.10;86.80
1778;DHT22;886;50.082;8.222;2023-04-03T11:34:26;9.10;85.10
1778;DHT22;886;50.082;8.222;2023-04-03T11:37:04;9.10;86.00
1778;DHT22;886;50.082;8.222;2023-04-03T11:39:35;9.30;85.50
1778;DHT22;886;50.082;8.222;2023-04-03T11:42:15;9.30;84.60
1778;DHT22;886;50.082;8.222;2023-04-03T11:44:43;9.10;85.10
1778;DHT22;886;50.082;8.222;2023-04-03T11:47:12;9.10;85.30
1778;DHT22;886;50.082;8.222;2023-04-03T11:50:42;9.20;84.60
1778;DHT22;886;50.082;8.222;2023-04-03T11:53:33;9.10;84.50
1778;DHT22;886;50.082;8.222;2023-04-03T11:56:29;9.00;84.10
1778;DHT22;886;50.082;8.222;2023-04-03T11:59:16;9.00;84.50
1778;DHT22;886;50.082;8.222;2023-04-03T12:01:50;8.90;84.60
1778;DHT22;886;50.082;8.222;2023-04-03T12:04:19;8.80;84.00
1778;DHT22;886;50.082;8.222;2023-04-03T12:09:57;8.80;84.00
1778;DHT22;886;50.082;8.222;2023-04-03T12:12:34;8.80;84.60
1778;DHT22;886;50.082;8.222;2023-04-03T12:15:38;8.80;83.20
1778;DHT22;886;50.082;8.222;2023-04-03T12:24:36;8.60;83.60
1778;DHT22;886;50.082;8.222;2023-04-03T12:27:24;8.70;82.60
1778;DHT22;886;50.082;8.222;2023-04-03T12:30:01;8.60;82.10
1778;DHT22;886;50.082;8.222;2023-04-03T12:32:44;8.50;82.40
1778;DHT22;886;50.082;8.222;2023-04-03T12:35:26;8.60;82.30
1778;DHT22;886;50.082;8.222;2023-04-03T12:38:17;8.50;81.90
1778;DHT22;886;50.082;8.222;2023-04-03T12:40:57;8.60;82.00
1778;DHT22;886;50.082;8.222;2023-04-03T12:43:47;8.60;81.00
1778;DHT22;886;50.082;8.222;2023-04-03T12:46:22;8.70;80.90
1778;DHT22;886;50.082;8.222;2023-04-03T12:49:04;8.70;80.00
1778;DHT22;886;50.082;8.222;2023-04-03T12:51:44;8.80;79.60
1778;DHT22;886;50.082;8.222;2023-04-03T12:54:15;8.70;79.50
1778;DHT22;886;50.082;8.222;2023-04-03T12:56:45;8.80;79.10
1778;DHT22;886;50.082;8.222;2023-04-03T12:59:18;8.70;78.70
1778;DHT22;886;50.082;8.222;2023-04-03T13:01:55;8.70;78.90
1778;DHT22;886;50.082;8.222;2023-04-03T13:04:25;8.80;79.80
1778;DHT22;886;50.082;8.222;2023-04-03T13:06:53;8.90;79.20
1778;DHT22;886;50.082;8.222;2023-04-03T13:09:24;8.90;78.60
1778;DHT22;886;50.082;8.222;2023-04-03T13:11:58;9.00;78.10
1778;DHT22;886;50.082;8.222;2023-04-03T13:14:28;9.00;77.20
1778;DHT22;886;50.082;8.222;2023-04-03T13:16:59;9.00;75.30
1778;DHT22;886;50.082;8.222;2023-04-03T13:19:29;9.00;75.80
1778;DHT22;886;50.082;8.222;2023-04-03T13:22:01;9.00;76.60
1778;DHT22;886;50.082;8.222;2023-04-03T13:24:31;9.10;76.70
1778;DHT22;886;50.082;8.222;2023-04-03T13:27:02;9.10;77.10
1778;DHT22;886;50.082;8.222;2023-04-03T13:29:32;9.10;77.90
1778;DHT22;886;50.082;8.222;2023-04-03T13:32:03;9.10;77.30
1778;DHT22;886;50.082;8.222;2023-04-03T13:34:36;9.10;76.20
1778;DHT22;886;50.082;8.222;2023-04-03T13:37:05;9.20;74.80
1778;DHT22;886;50.082;8.222;2023-04-03T13:39:36;9.10;74.80
1778;DHT22;886;50.082;8.222;2023-04-03T13:42:20;9.00;76.10
1778;DHT22;886;50.082;8.222;2023-04-03T13:45:09;9.00;76.10
1778;DHT22;886;50.082;8.222;2023-04-03T13:47:39;9.00;75.30
1778;DHT22;886;50.082;8.222;2023-04-03T13:50:15;9.10;75.00
1778;DHT22;886;50.082;8.222;2023-04-03T13:52:47;9.10;75.00
1778;DHT22;886;50.082;8.222;2023-04-03T13:55:19;9.20;75.50
1778;DHT22;886;50.082;8.222;2023-04-03T13:57:56;9.20;75.40
1778;DHT22;886;50.082;8.222;2023-04-03T14:00:32;9.20;75.80
1778;DHT22;886;50.082;8.222;2023-04-03T14:03:12;9.30;76.40
1778;DHT22;886;50.082;8.222;2023-04-03T14:05:41;9.40;75.80
1778;DHT22;886;50.082;8.222;2023-04-03T14:08:08;9.40;75.70
1778;DHT22;886;50.082;8.222;2023-04-03T14:10:37;9.40;75.10
1778;DHT22;886;50.082;8.222;2023-04-03T14:13:06;9.50;75.30
1778;DHT22;886;50.082;8.222;2023-04-03T14:15:33;9.50;74.90
1778;DHT22;886;50.082;8.222;2023-04-03T14:18:00;9.40;74.80
1778;DHT22;886;50.082;8.222;2023-04-03T14:20:32;9.50;74.80
1778;DHT22;886;50.082;8.222;2023-04-03T14:22:59;9.50;75.40
1778;DHT22;886;50.082;8.222;2023-04-03T14:25:27;9.50;75.10
1778;DHT22;886;50.082;8.222;2023-04-03T14:27:55;9.50;74.90
1778;DHT22;886;50.082;8.222;2023-04-03T14:30:27;9.50;74.40
1778;DHT22;886;50.082;8.222;2023-04-03T14:32:56;9.50;74.20
1778;DHT22;886;50.082;8.222;2023-04-03T14:35:25;9.50;73.20
1778;DHT22;886;50.082;8.222;2023-04-03T14:37:54;9.40;72.90
1778;DHT22;886;50.082;8.222;2023-04-03T14:40:24;9.40;72.10
1778;DHT22;886;50.082;8.222;2023-04-03T14:42:53;9.50;73.60
1778;DHT22;886;50.082;8.222;2023-04-03T14:45:23;9.50;73.90
1778;DHT22;886;50.082;8.222;2023-04-03T14:47:53;9.50;73.90
1778;DHT22;886;50.082;8.222;2023-04-03T14:50:23;9.40;73.80
1778;DHT22;886;50.082;8.222;2023-04-03T14:52:54;9.40;74.40
1778;DHT22;886;50.082;8.222;2023-04-03T14:55:24;9.50;74.60
1778;DHT22;886;50.082;8.222;2023-04-03T14:57:52;9.40;73.70
1778;DHT22;886;50.082;8.222;2023-04-03T15:00:21;9.40;73.30
1778;DHT22;886;50.082;8.222;2023-04-03T15:02:50;9.40;72.20
1778;DHT22;886;50.082;8.222;2023-04-03T15:05:18;9.40;73.10
1778;DHT22;886;50.082;8.222;2023-04-03T15:07:48;9.40;73.30
1778;DHT22;886;50.082;8.222;2023-04-03T15:10:19;9.40;73.70
1778;DHT22;886;50.082;8.222;2023-04-03T15:12:48;9.40;73.60
1778;DHT22;886;50.082;8.222;2023-04-03T15:15:17;9.40;73.90
1778;DHT22;886;50.082;8.222;2023-04-03T15:17:50;9.40;73.20
1778;DHT22;886;50.082;8.222;2023-04-03T15:20:27;9.50;73.60
1778;DHT22;886;50.082;8.222;2023-04-03T15:22:57;9.50;72.70
1778;DHT22;886;50.082;8.222;2023-04-03T15:25:28;9.50;73.30
1778;DHT22;886;50.082;8.222;2023-04-03T15:27:56;9.50;73.30
1778;DHT22;886;50.082;8.222;2023-04-03T15:30:23;9.50;73.50
1778;DHT22;886;50.082;8.222;2023-04-03T15:32:52;9.50;73.30
1778;DHT22;886;50.082;8.222;2023-04-03T15:35:19;9.50;72.60
1778;DHT22;886;50.082;8.222;2023-04-03T15:37:47;9.50;72.10
1778;DHT22;886;50.082;8.222;2023-04-03T15:40:14;9.50;73.10
1778;DHT22;886;50.082;8.222;2023-04-03T15:42:41;9.40;73.60
1778;DHT22;886;50.082;8.222;2023-04-03T15:45:09;9.30;72.50
1778;DHT22;886;50.082;8.222;2023-04-03T15:47:37;9.30;74.00
1778;DHT22;886;50.082;8.222;2023-04-03T15:50:07;9.30;74.60
1778;DHT22;886;50.082;8.222;2023-04-03T15:52:36;9.20;74.40
1778;DHT22;886;50.082;8.222;2023-04-03T15:55:04;9.20;74.30
1778;DHT22;886;50.082;8.222;2023-04-03T15:57:32;9.10;73.90
1778;DHT22;886;50.082;8.222;2023-04-03T16:00:06;9.10;73.80
1778;DHT22;886;50.082;8.222;2023-04-03T16:02:34;9.20;73.30
1778;DHT22;886;50.082;8.222;2023-04-03T16:05:02;9.20;73.10
1778;DHT22;886;50.082;8.222;2023-04-03T16:07:31;9.20;73.50
1778;DHT22;886;50.082;8.222;2023-04-03T16:09:59;9.20;74.30
1778;DHT22;886;50.082;8.222;2023-04-03T16:12:27;9.10;75.00
1778;DHT22;886;50.082;8.222;2023-04-03T16:14:54;9.10;75.00
1778;DHT22;886;50.082;8.222;2023-04-03T16:17:21;9.10;74.60
1778;DHT22;886;50.082;8.222;2023-04-03T16:19:49;9.10;74.90
1778;DHT22;886;50.082;8.222;2023-04-03T16:22:17;9.10;75.40
1778;DHT22;886;50.082;8.222;2023-04-03T16:24:46;9.10;75.80
1778;DHT22;886;50.082;8.222;2023-04-03T16:27:13;9.10;75.10
1778;DHT22;886;50.082;8.222;2023-04-03T16:29:40;9.10;74.50
1778;DHT22;886;50.082;8.222;2023-04-03T16:32:08;9.00;74.30
1778;DHT22;886;50.082;8.222;2023-04-03T16:34:36;9.00;74.40
1778;DHT22;886;50.082;8.222;2023-04-03T16:37:03;9.00;74.40
1778;DHT22;886;50.082;8.222;2023-04-03T16:39:30;9.00;74.40
1778;DHT22;886;50.082;8.222;2023-04-03T16:41:59;9.00;74.40
1778;DHT22;886;50.082;8.222;2023-04-03T16:44:26;8.90;74.30
1778;DHT22;886;50.082;8.222;2023-04-03T16:46:54;8.90;74.00
1778;DHT22;886;50.082;8.222;2023-04-03T16:49:21;8.90;73.70
1778;DHT22;886;50.082;8.222;2023-04-03T16:51:49;8.90;74.20
1778;DHT22;886;50.082;8.222;2023-04-03T16:54:16;8.90;74.70
1778;DHT22;886;50.082;8.222;2023-04-03T16:56:44;8.90;75.20
1778;DHT22;886;50.082;8.222;2023-04-03T16:59:13;8.90;75.50
1778;DHT22;886;50.082;8.222;2023-04-03T17:01:40;8.80;75.30
1778;DHT22;886;50.082;8.222;2023-04-03T17:04:08;8.80;74.50
1778;DHT22;886;50.082;8.222;2023-04-03T17:06:36;8.70;74.40
1778;DHT22;886;50.082;8.222;2023-04-03T17:09:04;8.70;73.50
1778;DHT22;886;50.082;8.222;2023-04-03T17:11:31;8.70;73.20
1778;DHT22;886;50.082;8.222;2023-04-03T17:13:59;8.60;73.50
1778;DHT22;886;50.082;8.222;2023-04-03T17:16:30;8.60;73.90